West Delhi, New York
Current Conditions -  °F | °C
As of 11:15 AM on Saturday 22 Nov 2014 (Local Time) from KMSV Reporting Station
Clear Clear  
Wind Chill: 23°   Ceiling: Unl
Heat Index: 30°   Visibility: 10mi
Dew Point:   Wind: 7mph
Humidity: 40%   Direction: 250°WSW
Pressure: 30.28"   Gusts: NA
Location:  42.3065°N, 74.9298°W
Report Text: KMSV 221615Z AUTO 25006KT 10SM CLR M01/M13 A3028 RMK AO1
Loading
Personal Weather Stations






























Interactive Weather Map New forecast layout! Learn more

10-Day Weather Forecast

Advertisements
Track Severe Weather on mobile